KCVC

Covington Municipal Airport

Atlanta, Georgia, USA
METAR KCVC 171355Z AUTO 31006KT 10SM CLR 10/07 A3015 RMK AO2 PNO
Observed Flight Rules
Dec-17 @ 13:55 UTC (34 minutes ago) Visual Flight Rules
Wind Visibility Clouds
310° at 6 knots 10 miles
  • Clear skies
Temperatures Readings
Current 10°C / 50°F
Dewpoint 7°C / 45°F
Humidity 82%
Altimeter 30.15" Hg
Pressure 1021 hPa
Elevation 247
METAR KCVC 171355Z AUTO 31006KT 10SM CLR 10/07 A3015 RMK AO2 PNO
Observed Flight Rules
Dec-17 @ 13:55 UTC
(34 minutes ago)
VFR
Wind Visibility
310° at 6 knots 10 miles
Clouds
  • Clear skies
Temperature Dewpoint
10°C / 50°F 7°C / 45°F
Humidity Altimeter Pressure
82% 30.15" Hg 1021 hPa